Observation data for Morton on 01/12/2018      Previous  Date  Next       Current Mesonet Observations  Soil Data  Daily Summary Page  Observations in Plain Language
KMNS 120600Z 14001KT M04/M13 A3026 RMK A01 T10441127  RH  053%=      5-min Rain = 0
KMNS 120605Z 16002KT M05/M13 A3026 RMK A01 T10491128  RH  054%=      5-min Rain = 0
KMNS 120610Z 16002KT M05/M14 A3026 RMK A01 T10491137  RH  051%=      5-min Rain = 0
KMNS 120615Z 16003KT M05/M15 A3026 RMK A01 T10531146  RH  049%=      5-min Rain = 0
KMNS 120620Z 15003KT M05/M15 A3026 RMK A01 T10541148  RH  048%=      5-min Rain = 0
KMNS 120625Z 16003KT M05/M15 A3026 RMK A01 T10521147  RH  048%=      5-min Rain = 0
KMNS 120630Z 17003KT M05/M15 A3026 RMK A01 T10501146  RH  048%=      5-min Rain = 0
KMNS 120635Z 18004KT M05/M14 A3026 RMK A01 T10471141  RH  048%=      5-min Rain = 0
KMNS 120640Z 18004KT M05/M14 A3025 RMK A01 T10481142  RH  048%=      5-min Rain = 0
KMNS 120645Z 18004KT M05/M14 A3025 RMK A01 T10461138  RH  049%=      5-min Rain = 0
KMNS 120650Z 18004KT M04/M14 A3025 RMK A01 T10431135  RH  049%=      5-min Rain = 0
KMNS 120655Z 17003KT M04/M14 A3024 RMK A01 T10411135  RH  049%=      5-min Rain = 0
KMNS 120700Z 18003KT M04/M13 A3025 RMK A01 T10401133  RH  049%=      5-min Rain = 0
KMNS 120705Z 18003KT M04/M13 A3025 RMK A01 T10361127  RH  050%=      5-min Rain = 0
KMNS 120710Z 19003KT M04/M14 A3025 RMK A01 T10431136  RH  049%=      5-min Rain = 0
KMNS 120715Z 19002KT M05/M13 A3025 RMK A01 T10481132  RH  053%=      5-min Rain = 0
KMNS 120720Z 19003KT M04/M13 A3025 RMK A01 T10421125  RH  053%=      5-min Rain = 0
KMNS 120725Z 19003KT M04/M13 A3025 RMK A01 T10421128  RH  052%=      5-min Rain = 0
KMNS 120730Z 19003KT M05/M13 A3025 RMK A01 T10451132  RH  052%=      5-min Rain = 0
KMNS 120735Z 19003KT M05/M13 A3025 RMK A01 T10451126  RH  054%=      5-min Rain = 0
KMNS 120740Z 18003KT M04/M13 A3025 RMK A01 T10431127  RH  053%=      5-min Rain = 0
KMNS 120745Z 18003KT M04/M13 A3025 RMK A01 T10431129  RH  052%=      5-min Rain = 0
KMNS 120750Z 18003KT M05/M13 A3025 RMK A01 T10461129  RH  053%=      5-min Rain = 0
KMNS 120755Z 18003KT M04/M13 A3025 RMK A01 T10441127  RH  053%=      5-min Rain = 0
KMNS 120800Z 18003KT M04/M13 A3025 RMK A01 T10411128  RH  051%=      5-min Rain = 0
KMNS 120805Z 19004KT M04/M13 A3024 RMK A01 T10411129  RH  051%=      5-min Rain = 0
KMNS 120810Z 20003KT M04/M13 A3024 RMK A01 T10431130  RH  052%=      5-min Rain = 0
KMNS 120815Z 19003KT M05/M13 A3024 RMK A01 T10451125  RH  054%=      5-min Rain = 0
KMNS 120820Z 20004KT M05/M13 A3024 RMK A01 T10481132  RH  052%=      5-min Rain = 0
KMNS 120825Z 21004KT M05/M14 A3024 RMK A01 T10541137  RH  053%=      5-min Rain = 0
KMNS 120830Z 21004KT M06/M14 A3024 RMK A01 T10551137  RH  053%=      5-min Rain = 0
KMNS 120835Z 21004KT M05/M13 A3025 RMK A01 T10541134  RH  054%=      5-min Rain = 0
KMNS 120840Z 21004KT M05/M13 A3024 RMK A01 T10491131  RH  053%=      5-min Rain = 0
KMNS 120845Z 21004KT M05/M14 A3024 RMK A01 T10541135  RH  054%=      5-min Rain = 0
KMNS 120850Z 21005KT M05/M13 A3024 RMK A01 T10501131  RH  054%=      5-min Rain = 0
KMNS 120855Z 20006KT M05/M13 A3023 RMK A01 T10491132  RH  053%=      5-min Rain = 0
KMNS 120900Z 20006KT M05/M13 A3023 RMK A01 T10461131  RH  052%=      5-min Rain = 0
KMNS 120905Z 20005KT M04/M13 A3023 RMK A01 T10431129  RH  052%=      5-min Rain = 0
KMNS 120910Z 20004KT M05/M13 A3023 RMK A01 T10451132  RH  052%=      5-min Rain = 0
KMNS 120915Z 20005KT M05/M13 A3023 RMK A01 T10471132  RH  052%=      5-min Rain = 0
KMNS 120920Z 20005KT M04/M13 A3022 RMK A01 T10431128  RH  052%=      5-min Rain = 0
KMNS 120925Z 21005KT M04/M13 A3022 RMK A01 T10431128  RH  052%=      5-min Rain = 0
KMNS 120930Z 21005KT M04/M13 A3022 RMK A01 T10421128  RH  052%=      5-min Rain = 0
KMNS 120935Z 20005KT M04/M13 A3021 RMK A01 T10431128  RH  052%=      5-min Rain = 0
KMNS 120940Z 20004KT M04/M13 A3021 RMK A01 T10441130  RH  052%=      5-min Rain = 0
KMNS 120945Z 20004KT M05/M13 A3021 RMK A01 T10511133  RH  053%=      5-min Rain = 0
KMNS 120950Z 21004KT M05/M13 A3021 RMK A01 T10521132  RH  054%=      5-min Rain = 0
KMNS 120955Z 21005KT M05/M13 A3021 RMK A01 T10481129  RH  054%=      5-min Rain = 0
KMNS 121000Z 20006KT M05/M13 A3021 RMK A01 T10461129  RH  053%=      5-min Rain = 0
KMNS 121005Z 20006KT M05/M13 A3021 RMK A01 T10471128  RH  054%=      5-min Rain = 0
KMNS 121010Z 20005KT M04/M12 A3021 RMK A01 T10441124  RH  054%=      5-min Rain = 0
KMNS 121015Z 21005KT M04/M12 A3021 RMK A01 T10391123  RH  053%=      5-min Rain = 0
KMNS 121020Z 20007KT M04/M12 A3021 RMK A01 T10351122  RH  052%=      5-min Rain = 0
KMNS 121025Z 19007KT M04/M12 A302 RMK A01 T10361122  RH  052%=      5-min Rain = 0
KMNS 121030Z 20006KT M04/M12 A302 RMK A01 T10361122  RH  052%=      5-min Rain = 0
KMNS 121035Z 20007KT M04/M12 A302 RMK A01 T10361123  RH  052%=      5-min Rain = 0
KMNS 121040Z 20006KT M04/M12 A3021 RMK A01 T10371124  RH  052%=      5-min Rain = 0
KMNS 121045Z 20006KT M04/M12 A3021 RMK A01 T10361124  RH  051%=      5-min Rain = 0
KMNS 121050Z 21006KT M04/M12 A3021 RMK A01 T10361123  RH  051%=      5-min Rain = 0
KMNS 121055Z 21006KT M04/M12 A3021 RMK A01 T10381124  RH  052%=      5-min Rain = 0
KMNS 121100Z 21007KT M04/M12 A302 RMK A01 T10381123  RH  052%=      5-min Rain = 0
KMNS 121105Z 20007KT M04/M12 A3021 RMK A01 T10351122  RH  052%=      5-min Rain = 0
KMNS 121110Z 20007KT M04/M12 A302 RMK A01 T10361123  RH  052%=      5-min Rain = 0
KMNS 121115Z 20007KT M04/M12 A302 RMK A01 T10361123  RH  052%=      5-min Rain = 0
KMNS 121120Z 19007KT M04/M12 A302 RMK A01 T10371123  RH  052%=      5-min Rain = 0
KMNS 121125Z 19007KT M04/M12 A3019 RMK A01 T10391124  RH  052%=      5-min Rain = 0
KMNS 121130Z 19007KT M04/M13 A3019 RMK A01 T10431125  RH  054%=      5-min Rain = 0
KMNS 121135Z 19008KT M05/M13 A3019 RMK A01 T10461126  RH  054%=      5-min Rain = 0
KMNS 121140Z 19008KT M05/M13 A3019 RMK A01 T10501127  RH  055%=      5-min Rain = 0
KMNS 121145Z 18008KT M05/M13 A3018 RMK A01 T10511127  RH  056%=      5-min Rain = 0
KMNS 121150Z 18008KT M05/M13 A3018 RMK A01 T10501126  RH  056%=      5-min Rain = 0
KMNS 121155Z 18008KT M05/M13 A3019 RMK A01 T10471125  RH  055%=      5-min Rain = 0
KMNS 121200Z 18008KT M05/M12 A3019 RMK A01 T10451124  RH  055%=      5-min Rain = 0
KMNS 121205Z 18008KT M05/M13 A3019 RMK A01 T10451125  RH  054%=      5-min Rain = 0
KMNS 121210Z 18008KT M05/M13 A3019 RMK A01 T10451125  RH  055%=      5-min Rain = 0
KMNS 121215Z 19008KT M05/M12 A3019 RMK A01 T10461124  RH  055%=      5-min Rain = 0
KMNS 121220Z 19007KT M05/M12 A3019 RMK A01 T10461124  RH  055%=      5-min Rain = 0
KMNS 121225Z 19008KT M05/M12 A3019 RMK A01 T10461123  RH  056%=      5-min Rain = 0
KMNS 121230Z 19008KT M04/M12 A3019 RMK A01 T10441122  RH  055%=      5-min Rain = 0
KMNS 121235Z 19009KT M05/M12 A3019 RMK A01 T10451122  RH  055%=      5-min Rain = 0
KMNS 121240Z 18008KT M04/M12 A3019 RMK A01 T10431121  RH  055%=      5-min Rain = 0
KMNS 121245Z 19007KT M04/M12 A3019 RMK A01 T10441122  RH  055%=      5-min Rain = 0
KMNS 121250Z 19007KT M05/M12 A3019 RMK A01 T10461123  RH  055%=      5-min Rain = 0
KMNS 121255Z 19006KT M05/M12 A302 RMK A01 T10451123  RH  055%=      5-min Rain = 0
KMNS 121300Z 19007KT M04/M12 A302 RMK A01 T10441122  RH  055%=      5-min Rain = 0
KMNS 121305Z 18007KT M04/M12 A302 RMK A01 T10441122  RH  055%=      5-min Rain = 0
KMNS 121310Z 19006KT M05/M12 A302 RMK A01 T10461123  RH  056%=      5-min Rain = 0
KMNS 121315Z 20006KT M05/M12 A302 RMK A01 T10461123  RH  056%=      5-min Rain = 0
KMNS 121320Z 20007KT M04/M12 A302 RMK A01 T10401120  RH  054%=      5-min Rain = 0
KMNS 121325Z 20007KT M04/M12 A302 RMK A01 T10381121  RH  053%=      5-min Rain = 0
KMNS 121330Z 20007KT M04/M12 A302 RMK A01 T10391121  RH  054%=      5-min Rain = 0
KMNS 121335Z 20008KT M04/M12 A302 RMK A01 T10391120  RH  054%=      5-min Rain = 0
KMNS 121340Z 20009KT M04/M12 A3019 RMK A01 T10381120  RH  054%=      5-min Rain = 0
KMNS 121345Z 20009KT M04/M12 A3019 RMK A01 T10361119  RH  053%=      5-min Rain = 0
KMNS 121350Z 20009KT M04/M12 A3019 RMK A01 T10371120  RH  054%=      5-min Rain = 0
KMNS 121355Z 20008KT M04/M12 A3019 RMK A01 T10391120  RH  054%=      5-min Rain = 0
KMNS 121400Z 20009KT M04/M12 A3019 RMK A01 T10381119  RH  054%=      5-min Rain = 0
KMNS 121405Z 20008KT M04/M12 A3019 RMK A01 T10391120  RH  054%=      5-min Rain = 0
KMNS 121410Z 20006KT M04/M12 A3019 RMK A01 T10391120  RH  054%=      5-min Rain = 0
KMNS 121415Z 20004KT M04/M12 A302 RMK A01 T10401121  RH  054%=      5-min Rain = 0
KMNS 121420Z 20004KT M04/M12 A302 RMK A01 T10401120  RH  055%=      5-min Rain = 0
KMNS 121425Z 20006KT M04/M12 A302 RMK A01 T10371118  RH  054%=      5-min Rain = 0
KMNS 121430Z 20007KT M03/M12 A302 RMK A01 T10321117  RH  053%=      5-min Rain = 0
KMNS 121435Z 20007KT M03/M12 A302 RMK A01 T10281116  RH  052%=      5-min Rain = 0
KMNS 121440Z 19008KT M03/M12 A302 RMK A01 T10251115  RH  050%=      5-min Rain = 0
KMNS 121445Z 19008KT M02/M12 A302 RMK A01 T10231115  RH  050%=      5-min Rain = 0
KMNS 121450Z 19009KT M02/M11 A302 RMK A01 T10201113  RH  050%=      5-min Rain = 0
KMNS 121455Z 19010KT M02/M11 A302 RMK A01 T10161112  RH  049%=      5-min Rain = 0
KMNS 121500Z 19009KT M01/M11 A302 RMK A01 T10121112  RH  047%=      5-min Rain = 0
KMNS 121505Z 19008KT M01/M11 A3021 RMK A01 T10081112  RH  046%=      5-min Rain = 0
KMNS 121510Z 19008KT M01/M11 A3021 RMK A01 T10051112  RH  045%=      5-min Rain = 0
KMNS 121515Z 19008KT M00/M11 A3021 RMK A01 T10011112  RH  044%=      5-min Rain = 0
KMNS 121520Z 18010KT 00/M11 A302 RMK A01 T00031112  RH  042%=      5-min Rain = 0
KMNS 121525Z 18011KT 01/M11 A3021 RMK A01 T00081114  RH  040%=      5-min Rain = 0
KMNS 121530Z 18011KT 01/M11 A3021 RMK A01 T00131113  RH  039%=      5-min Rain = 0
KMNS 121535Z 18012G18KT 02/M12 A3021 RMK A01 T00181117  RH  037%=      5-min Rain = 0
KMNS 121540Z 17015G21KT 02/M12 A3021 RMK A01 T00181120  RH  036%=      5-min Rain = 0
KMNS 121545Z 18016KT 02/M12 A302 RMK A01 T00221120  RH  035%=      5-min Rain = 0
KMNS 121550Z 18014KT 03/M12 A3021 RMK A01 T00261122  RH  033%=      5-min Rain = 0
KMNS 121555Z 17012KT 03/M12 A3021 RMK A01 T00301120  RH  033%=      5-min Rain = 0
KMNS 121600Z 17014KT 03/M12 A3021 RMK A01 T00311122  RH  032%=      5-min Rain = 0
KMNS 121605Z 17014KT 03/M12 A3022 RMK A01 T00341123  RH  031%=      5-min Rain = 0
KMNS 121610Z 18015KT 03/M13 A3022 RMK A01 T00341126  RH  030%=      5-min Rain = 0
KMNS 121615Z 18015KT 03/M13 A3022 RMK A01 T00321129  RH  030%=      5-min Rain = 0
KMNS 121620Z 18014G19KT 04/M13 A3022 RMK A01 T00381125  RH  030%=      5-min Rain = 0
KMNS 121625Z 18014KT 04/M12 A3021 RMK A01 T00441124  RH  029%=      5-min Rain = 0
KMNS 121630Z 17012KT 05/M12 A3021 RMK A01 T00451119  RH  029%=      5-min Rain = 0
KMNS 121635Z 16013KT 04/M12 A3021 RMK A01 T00411120  RH  030%=      5-min Rain = 0
KMNS 121640Z 16013KT 04/M12 A302 RMK A01 T00391120  RH  031%=      5-min Rain = 0
KMNS 121645Z 17013KT 05/M12 A302 RMK A01 T00461118  RH  030%=      5-min Rain = 0
KMNS 121650Z 17014G19KT 05/M12 A302 RMK A01 T00501118  RH  029%=      5-min Rain = 0
KMNS 121655Z 18014G20KT 05/M12 A302 RMK A01 T00531119  RH  028%=      5-min Rain = 0
KMNS 121700Z 18015G21KT 05/M12 A302 RMK A01 T00521119  RH  028%=      5-min Rain = 0
KMNS 121705Z 18015KT 05/M12 A302 RMK A01 T00511119  RH  028%=      5-min Rain = 0
KMNS 121710Z 18014KT 06/M12 A302 RMK A01 T00571117  RH  028%=      5-min Rain = 0
KMNS 121715Z 18013G18KT 06/M12 A3019 RMK A01 T00591117  RH  027%=      5-min Rain = 0
KMNS 121720Z 18014KT 06/M12 A3019 RMK A01 T00581117  RH  028%=      5-min Rain = 0
KMNS 121725Z 17013G18KT 06/M12 A3019 RMK A01 T00601116  RH  027%=      5-min Rain = 0
KMNS 121730Z 18014G20KT 06/M12 A3019 RMK A01 T00561117  RH  028%=      5-min Rain = 0
KMNS 121735Z 18014KT 05/M12 A3018 RMK A01 T00521117  RH  029%=      5-min Rain = 0
KMNS 121740Z 19015KT 06/M12 A3018 RMK A01 T00581116  RH  028%=      5-min Rain = 0
KMNS 121745Z 18015KT 06/M12 A3017 RMK A01 T00641115  RH  027%=      5-min Rain = 0
KMNS 121750Z 19016KT 07/M12 A3017 RMK A01 T00661115  RH  026%=      5-min Rain = 0
KMNS 121755Z 18016KT 07/M12 A3016 RMK A01 T00671115  RH  026%=      5-min Rain = 0
KMNS 121800Z 18014KT 07/M11 A3016 RMK A01 T00711114  RH  026%=      5-min Rain = 0
KMNS 121805Z 18015KT 08/M11 A3015 RMK A01 T00751113  RH  025%=      5-min Rain = 0
KMNS 121810Z 19014G19KT 08/M11 A3015 RMK A01 T00791111  RH  025%=      5-min Rain = 0
KMNS 121815Z 19016G21KT 08/M11 A3014 RMK A01 T00831111  RH  024%=      5-min Rain = 0
KMNS 121820Z 19017G22KT 08/M11 A3013 RMK A01 T00841111  RH  024%=      5-min Rain = 0
KMNS 121825Z 19018G23KT 09/M11 A3013 RMK A01 T00881108  RH  024%=      5-min Rain = 0
KMNS 121830Z 20016KT 09/M11 A3012 RMK A01 T00931106  RH  024%=      5-min Rain = 0
KMNS 121835Z 19015G20KT 09/M11 A3012 RMK A01 T00941106  RH  023%=      5-min Rain = 0
KMNS 121840Z 20014KT 10/M10 A3012 RMK A01 T00971104  RH  024%=      5-min Rain = 0
KMNS 121845Z 19015G20KT 10/M10 A3012 RMK A01 T00991103  RH  023%=      5-min Rain = 0
KMNS 121850Z 20013G18KT 10/M10 A3012 RMK A01 T01041100  RH  023%=      5-min Rain = 0
KMNS 121855Z 19014G21KT 11/M10 A3011 RMK A01 T01051100  RH  023%=      5-min Rain = 0
KMNS 121900Z 19013G19KT 11/M10 A3011 RMK A01 T01081098  RH  023%=      5-min Rain = 0
KMNS 121905Z 18013KT 11/M09 A3011 RMK A01 T01111094  RH  023%=      5-min Rain = 0
KMNS 121910Z 20014KT 11/M09 A301 RMK A01 T01141092  RH  023%=      5-min Rain = 0
KMNS 121915Z 20013G18KT 11/M09 A301 RMK A01 T01141092  RH  023%=      5-min Rain = 0
KMNS 121920Z 20014KT 12/M09 A3009 RMK A01 T01161091  RH  023%=      5-min Rain = 0
KMNS 121925Z 19013KT 12/M09 A3009 RMK A01 T01191090  RH  022%=      5-min Rain = 0
KMNS 121930Z 19012G18KT 13/M09 A3009 RMK A01 T01271089  RH  022%=      5-min Rain = 0
KMNS 121935Z 20011KT 13/M09 A3009 RMK A01 T01261089  RH  022%=      5-min Rain = 0
KMNS 121940Z 20012G17KT 13/M08 A3008 RMK A01 T01311083  RH  022%=      5-min Rain = 0
KMNS 121945Z 20012G17KT 14/M08 A3008 RMK A01 T01351081  RH  022%=      5-min Rain = 0
KMNS 121950Z 20012KT 13/M08 A3007 RMK A01 T01341079  RH  022%=      5-min Rain = 0
KMNS 121955Z 20011G16KT 14/M08 A3007 RMK A01 T01361078  RH  022%=      5-min Rain = 0
KMNS 122000Z 20011KT 14/M07 A3007 RMK A01 T01431070  RH  022%=      5-min Rain = 0
KMNS 122005Z 21008KT 14/M07 A3007 RMK A01 T01431070  RH  022%=      5-min Rain = 0
KMNS 122010Z 22010KT 14/M07 A3007 RMK A01 T01441071  RH  022%=      5-min Rain = 0
KMNS 122015Z 22008G13KT 15/M07 A3006 RMK A01 T01451070  RH  022%=      5-min Rain = 0
KMNS 122020Z 24011G16KT 15/M07 A3006 RMK A01 T01491070  RH  022%=      5-min Rain = 0
KMNS 122025Z 24008G13KT 15/M07 A3006 RMK A01 T01481071  RH  022%=      5-min Rain = 0
KMNS 122030Z 23007G12KT 15/M07 A3006 RMK A01 T01471071  RH  022%=      5-min Rain = 0
KMNS 122035Z 24005KT 15/M07 A3006 RMK A01 T01511070  RH  021%=      5-min Rain = 0
KMNS 122040Z 25006KT 16/M07 A3006 RMK A01 T01551069  RH  021%=      5-min Rain = 0
KMNS 122045Z 24005KT 15/M07 A3006 RMK A01 T01501070  RH  022%=      5-min Rain = 0
KMNS 122050Z 25004KT 15/M07 A3006 RMK A01 T01531069  RH  021%=      5-min Rain = 0
KMNS 122055Z 27005KT 15/M07 A3006 RMK A01 T01541070  RH  021%=      5-min Rain = 0
KMNS 122100Z 22008KT 16/M07 A3006 RMK A01 T01561070  RH  021%=      5-min Rain = 0
KMNS 122105Z 22005KT 16/M07 A3005 RMK A01 T01571071  RH  020%=      5-min Rain = 0
KMNS 122110Z 24007KT 16/M07 A3005 RMK A01 T01561072  RH  020%=      5-min Rain = 0
KMNS 122115Z 23005G10KT 16/M07 A3005 RMK A01 T01561072  RH  020%=      5-min Rain = 0
KMNS 122120Z 24005KT 16/M07 A3005 RMK A01 T01561071  RH  020%=      5-min Rain = 0
KMNS 122125Z 27005KT 16/M07 A3005 RMK A01 T01571072  RH  020%=      5-min Rain = 0
KMNS 122130Z 23004KT 16/M07 A3005 RMK A01 T01631071  RH  020%=      5-min Rain = 0
KMNS 122135Z 24004G9KT 16/M07 A3005 RMK A01 T01641071  RH  020%=      5-min Rain = 0
KMNS 122140Z 22005KT 16/M07 A3005 RMK A01 T01631071  RH  020%=      5-min Rain = 0
KMNS 122145Z 24003KT 17/M07 A3005 RMK A01 T01651072  RH  019%=      5-min Rain = 0
KMNS 122150Z 22003KT 17/M07 A3005 RMK A01 T01671072  RH  019%=      5-min Rain = 0
KMNS 122155Z 20003KT 17/M07 A3005 RMK A01 T01691072  RH  019%=      5-min Rain = 0
KMNS 122200Z 19004G9KT 17/M07 A3005 RMK A01 T01671073  RH  019%=      5-min Rain = 0
KMNS 122205Z 18005KT 17/M07 A3005 RMK A01 T01661072  RH  019%=      5-min Rain = 0
KMNS 122210Z 19005KT 17/M07 A3004 RMK A01 T01661073  RH  019%=      5-min Rain = 0
KMNS 122215Z 18005KT 17/M07 A3004 RMK A01 T01691073  RH  019%=      5-min Rain = 0
KMNS 122220Z 17004KT 17/M07 A3005 RMK A01 T01681073  RH  019%=      5-min Rain = 0
KMNS 122225Z 14005KT 17/M07 A3005 RMK A01 T01671073  RH  019%=      5-min Rain = 0
KMNS 122230Z 16006KT 17/M07 A3005 RMK A01 T01671073  RH  019%=      5-min Rain = 0
KMNS 122235Z 14006G13KT 17/M07 A3005 RMK A01 T01661074  RH  019%=      5-min Rain = 0
KMNS 122240Z 14011G16KT 16/M09 A3006 RMK A01 T01581086  RH  018%=      5-min Rain = 0
KMNS 122245Z 14012KT 15/M09 A3006 RMK A01 T01511087  RH  019%=      5-min Rain = 0
KMNS 122250Z 14013KT 14/M09 A3006 RMK A01 T01431090  RH  019%=      5-min Rain = 0
KMNS 122255Z 13011KT 14/M09 A3006 RMK A01 T01441090  RH  019%=      5-min Rain = 0
KMNS 122300Z 14012KT 14/M09 A3006 RMK A01 T01391091  RH  020%=      5-min Rain = 0
KMNS 122305Z 14011KT 13/M09 A3007 RMK A01 T01301091  RH  021%=      5-min Rain = 0
KMNS 122310Z 14011KT 13/M09 A3007 RMK A01 T01261091  RH  021%=      5-min Rain = 0
KMNS 122315Z 14011KT 13/M09 A3007 RMK A01 T01251091  RH  022%=      5-min Rain = 0
KMNS 122320Z 14010KT 12/M09 A3007 RMK A01 T01211090  RH  022%=      5-min Rain = 0
KMNS 122325Z 14011KT 12/M09 A3007 RMK A01 T01201090  RH  022%=      5-min Rain = 0
KMNS 122330Z 15010KT 12/M09 A3008 RMK A01 T01211090  RH  022%=      5-min Rain = 0
KMNS 122335Z 14011KT 12/M09 A3008 RMK A01 T01211090  RH  022%=      5-min Rain = 0
KMNS 122340Z 14011KT 12/M09 A3008 RMK A01 T01191090  RH  023%=      5-min Rain = 0
KMNS 122345Z 14010KT 12/M09 A3008 RMK A01 T01171091  RH  023%=      5-min Rain = 0
KMNS 122350Z 14010KT 11/M09 A3008 RMK A01 T01131091  RH  023%=      5-min Rain = 0
KMNS 122355Z 14009KT 11/M09 A3008 RMK A01 T01091091  RH  024%=      5-min Rain = 0
KMNS 130000Z 14010KT 11/M09 A3009 RMK A01 T01051091  RH  024%=      5-min Rain = 0
KMNS 130005Z 14010KT 10/M09 A3009 RMK A01 T01021092  RH  025%=      5-min Rain = 0
KMNS 130010Z 15011G17KT 10/M09 A3009 RMK A01 T00981093  RH  025%=      5-min Rain = 0
KMNS 130015Z 15010G16KT 10/M09 A301 RMK A01 T00971093  RH  025%=      5-min Rain = 0
KMNS 130020Z 14009KT 09/M10 A301 RMK A01 T00931095  RH  026%=      5-min Rain = 0
KMNS 130025Z 13009KT 09/M10 A3011 RMK A01 T00891096  RH  026%=      5-min Rain = 0
KMNS 130030Z 14011G18KT 09/M10 A3011 RMK A01 T00881097  RH  026%=      5-min Rain = 0
KMNS 130035Z 15011KT 08/M10 A3011 RMK A01 T00841098  RH  027%=      5-min Rain = 0
KMNS 130040Z 14010KT 08/M10 A3011 RMK A01 T00811099  RH  027%=      5-min Rain = 0
KMNS 130045Z 14009KT 08/M10 A3012 RMK A01 T00791099  RH  028%=      5-min Rain = 0
KMNS 130050Z 14010KT 08/M10 A3012 RMK A01 T00751100  RH  028%=      5-min Rain = 0
KMNS 130055Z 15010KT 07/M10 A3012 RMK A01 T00731100  RH  028%=      5-min Rain = 0
KMNS 130100Z 15010KT 07/M10 A3012 RMK A01 T00731099  RH  029%=      5-min Rain = 0
KMNS 130105Z 15009KT 07/M10 A3013 RMK A01 T00701100  RH  029%=      5-min Rain = 0
KMNS 130110Z 14008KT 07/M10 A3013 RMK A01 T00671101  RH  029%=      5-min Rain = 0
KMNS 130115Z 14008KT 06/M10 A3014 RMK A01 T00631100  RH  030%=      5-min Rain = 0
KMNS 130120Z 14008KT 06/M10 A3014 RMK A01 T00611102  RH  030%=      5-min Rain = 0
KMNS 130125Z 15008KT 06/M10 A3015 RMK A01 T00601101  RH  031%=      5-min Rain = 0
KMNS 130130Z 15008KT 06/M10 A3015 RMK A01 T00611100  RH  031%=      5-min Rain = 0
KMNS 130135Z 15008KT 06/M10 A3015 RMK A01 T00591100  RH  031%=      5-min Rain = 0
KMNS 130140Z 16008KT 06/M10 A3016 RMK A01 T00591101  RH  031%=      5-min Rain = 0
KMNS 130145Z 17009KT 06/M10 A3016 RMK A01 T00561101  RH  032%=      5-min Rain = 0
KMNS 130150Z 17008KT 05/M10 A3016 RMK A01 T00531101  RH  032%=      5-min Rain = 0
KMNS 130155Z 14006KT 05/M10 A3017 RMK A01 T00531101  RH  032%=      5-min Rain = 0
KMNS 130200Z 13005KT 05/M10 A3017 RMK A01 T00521102  RH  032%=      5-min Rain = 0
KMNS 130205Z 15006KT 05/M10 A3018 RMK A01 T00491102  RH  033%=      5-min Rain = 0
KMNS 130210Z 12006KT 05/M10 A3019 RMK A01 T00511102  RH  033%=      5-min Rain = 0
KMNS 130215Z 08009KT 05/M10 A302 RMK A01 T00451102  RH  034%=      5-min Rain = 0
KMNS 130220Z 08008KT 05/M10 A3021 RMK A01 T00451103  RH  034%=      5-min Rain = 0
KMNS 130225Z 09008KT 04/M10 A3021 RMK A01 T00441103  RH  034%=      5-min Rain = 0
KMNS 130230Z 07008KT 04/M10 A3021 RMK A01 T00401104  RH  035%=      5-min Rain = 0
KMNS 130235Z 07008KT 04/M11 A3022 RMK A01 T00381105  RH  035%=      5-min Rain = 0
KMNS 130240Z 07007KT 03/M11 A3022 RMK A01 T00341106  RH  036%=      5-min Rain = 0
KMNS 130245Z 06009KT 03/M11 A3023 RMK A01 T00331106  RH  036%=      5-min Rain = 0
KMNS 130250Z 08007KT 03/M11 A3023 RMK A01 T00321106  RH  036%=      5-min Rain = 0
KMNS 130255Z 07007KT 03/M11 A3024 RMK A01 T00311106  RH  036%=      5-min Rain = 0
KMNS 130300Z 05009KT 03/M11 A3024 RMK A01 T00281108  RH  036%=      5-min Rain = 0
KMNS 130305Z 05010KT 03/M11 A3025 RMK A01 T00261108  RH  037%=      5-min Rain = 0
KMNS 130310Z 06011KT 03/M11 A3025 RMK A01 T00271108  RH  037%=      5-min Rain = 0
KMNS 130315Z 06011G16KT 03/M11 A3026 RMK A01 T00291109  RH  036%=      5-min Rain = 0
KMNS 130320Z 07012KT 03/M11 A3027 RMK A01 T00331110  RH  035%=      5-min Rain = 0
KMNS 130325Z 07012KT 03/M11 A3027 RMK A01 T00331112  RH  034%=      5-min Rain = 0
KMNS 130330Z 06012G17KT 03/M11 A3028 RMK A01 T00311113  RH  034%=      5-min Rain = 0
KMNS 130335Z 07012G18KT 03/M11 A3028 RMK A01 T00291114  RH  035%=      5-min Rain = 0
KMNS 130340Z 07013KT 03/M12 A3028 RMK A01 T00261115  RH  035%=      5-min Rain = 0
KMNS 130345Z 07014KT 03/M12 A3029 RMK A01 T00251117  RH  035%=      5-min Rain = 0
KMNS 130350Z 07014KT 02/M12 A3029 RMK A01 T00231119  RH  035%=      5-min Rain = 0
KMNS 130355Z 08014KT 02/M12 A3029 RMK A01 T00221120  RH  034%=      5-min Rain = 0
KMNS 130400Z 07014KT 02/M12 A303 RMK A01 T00201122  RH  035%=      5-min Rain = 0
KMNS 130405Z 08013KT 02/M12 A303 RMK A01 T00181123  RH  035%=      5-min Rain = 0
KMNS 130410Z 08012KT 02/M12 A3031 RMK A01 T00171124  RH  035%=      5-min Rain = 0
KMNS 130415Z 08013KT 02/M13 A3031 RMK A01 T00151126  RH  035%=      5-min Rain = 0
KMNS 130420Z 07012KT 01/M13 A3032 RMK A01 T00141127  RH  035%=      5-min Rain = 0
KMNS 130425Z 08011KT 01/M13 A3032 RMK A01 T00121127  RH  035%=      5-min Rain = 0
KMNS 130430Z 08010KT 01/M13 A3032 RMK A01 T00101127  RH  035%=      5-min Rain = 0
KMNS 130435Z 08010KT 01/M13 A3033 RMK A01 T00091128  RH  036%=      5-min Rain = 0
KMNS 130440Z 08008KT 01/M13 A3033 RMK A01 T00071128  RH  036%=      5-min Rain = 0
KMNS 130445Z 09009KT 01/M13 A3033 RMK A01 T00061128  RH  036%=      5-min Rain = 0
KMNS 130450Z 09010KT 01/M13 A3033 RMK A01 T00071128  RH  036%=      5-min Rain = 0
KMNS 130455Z 09010KT 01/M13 A3033 RMK A01 T00071129  RH  036%=      5-min Rain = 0
KMNS 130500Z 09010KT 01/M13 A3034 RMK A01 T00071129  RH  036%=      5-min Rain = 0
KMNS 130505Z 07009KT 01/M13 A3035 RMK A01 T00061129  RH  036%=      5-min Rain = 0
KMNS 130510Z 06011KT 01/M13 A3036 RMK A01 T00051129  RH  036%=      5-min Rain = 0
KMNS 130515Z 06011KT 01/M13 A3036 RMK A01 T00051130  RH  036%=      5-min Rain = 0
KMNS 130520Z 06012KT 00/M13 A3036 RMK A01 T00041130  RH  036%=      5-min Rain = 0
KMNS 130525Z 07011KT 00/M13 A3036 RMK A01 T00031131  RH  036%=      5-min Rain = 0
KMNS 130530Z 07011KT 00/M13 A3036 RMK A01 T00011131  RH  037%=      5-min Rain = 0
KMNS 130535Z 08010KT 00/M13 A3036 RMK A01 T00011132  RH  037%=      5-min Rain = 0
KMNS 130540Z 09009KT 00/13 A3036 RMK A01 T00-00-132  RH  037%=      5-min Rain = 0
KMNS 130545Z 08008KT M00/M13 A3037 RMK A01 T10011132  RH  037%=      5-min Rain = 0
KMNS 130550Z 07009KT M00/M13 A3038 RMK A01 T10011132  RH  037%=      5-min Rain = 0
KMNS 130555Z 06008KT M00/M13 A3038 RMK A01 T10011132  RH  037%=      5-min Rain = 0

Page generated in 0.0101 seconds.